Lynnville, Kentucky
Current Conditions -  °F | °C
As of 5:15 PM on Friday 31 Oct 2014 (Local Time) from KCEY Reporting Station
Few Clouds Few Clouds  
Wind Chill: 38°   Ceiling: Unl
Heat Index: 45°   Visibility: 10mi
Dew Point: 25°   Wind: 14mph
Humidity: 46%   Direction: 360°N
Pressure: 30.2"   Gusts: 24mph
Location:  36.56°N, 88.57°W
Report Text: KCEY 312215Z AUTO 36012G21KT 10SM FEW065 07/M04 A3020 RMK AO1
Loading
Personal Weather Stations






























Interactive Weather Map
Tropical Storm Tracking
New forecast layout! Learn more

10-Day Weather Forecast

Advertisements
Track Severe Weather on mobile